Time;durP1;ratioP1;P1;durP2;ratioP2;P2;SDS_P1;SDS_P2;PMS_P1;PMS_P2;Temp;Humidity;BMP_temperature;BMP_pressure;BME280_temperature;BME280_humidity;BME280_pressure;Samples;Min_cycle;Max_cycle;Signal;HPM_P1;HPM_P2
2022/08/02 00:00:27;;;;;;;5.43;4.53;;;;;;;22.89;48.22;98514.16;5101505;28;20099;-93
2022/08/02 00:02:53;;;;;;;6.43;4.47;;;;;;;22.93;49.02;98529.19;5112207;28;20303;-91
2022/08/02 00:05:18;;;;;;;8.93;5.03;;;;;;;22.78;49.00;98523.16;5106164;28;20120;-93
2022/08/02 00:07:44;;;;;;;7.32;4.82;;;;;;;22.81;48.94;98535.59;5108767;28;20410;-92
2022/08/02 00:10:12;;;;;;;6.28;4.85;;;;;;;22.90;48.88;98543.88;5110533;28;20036;-92
2022/08/02 00:12:38;;;;;;;6.90;4.75;;;;;;;22.83;48.91;98536.34;5111209;28;20072;-91
2022/08/02 00:15:05;;;;;;;8.20;4.80;;;;;;;22.88;48.99;98543.13;5103349;28;20039;-93
2022/08/02 00:17:31;;;;;;;8.05;4.75;;;;;;;22.77;49.72;98538.56;5104758;28;20067;-92
2022/08/02 00:19:57;;;;;;;6.72;4.80;;;;;;;22.68;49.47;98528.44;5106840;28;20036;-91
2022/08/02 00:22:23;;;;;;;7.57;4.80;;;;;;;22.77;49.22;98533.16;5106840;28;20547;-92
2022/08/02 00:24:49;;;;;;;7.45;4.90;;;;;;;22.74;49.07;98527.09;5105715;28;20093;-92
2022/08/02 00:27:16;;;;;;;7.35;5.22;;;;;;;22.78;49.23;98534.00;5104847;28;20078;-92
2022/08/02 00:29:42;;;;;;;6.68;4.75;;;;;;;22.72;49.17;98529.94;5106604;28;20036;-92
2022/08/02 00:32:08;;;;;;;7.03;5.10;;;;;;;22.69;49.50;98524.78;5106168;28;20143;-91
2022/08/02 00:34:34;;;;;;;9.02;4.90;;;;;;;22.68;49.87;98544.72;5105376;28;20048;-92
2022/08/02 00:37:00;;;;;;;8.38;4.50;;;;;;;22.65;50.07;98550.38;5104504;28;20500;-91
2022/08/02 00:39:26;;;;;;;5.43;4.75;;;;;;;22.63;49.80;98538.81;5110360;28;20039;-92
2022/08/02 00:41:52;;;;;;;5.93;4.53;;;;;;;22.61;50.22;98546.19;5105315;28;20063;-92
2022/08/02 00:44:20;;;;;;;6.68;4.57;;;;;;;22.42;50.30;98524.25;5106078;28;20381;-90
2022/08/02 00:46:46;;;;;;;8.25;4.40;;;;;;;22.42;50.37;98526.97;5104278;28;20035;-90
2022/08/02 00:49:13;;;;;;;6.43;4.55;;;;;;;22.43;50.18;98523.28;5101709;28;20040;-92
2022/08/02 00:51:39;;;;;;;5.63;4.53;;;;;;;22.50;49.49;98535.34;5106903;28;20463;-90
2022/08/02 00:54:06;;;;;;;5.55;4.30;;;;;;;22.50;49.23;98532.66;5100887;28;20032;-91
2022/08/02 00:56:32;;;;;;;8.45;3.72;;;;;;;22.51;48.90;98527.13;5105574;28;20040;-91
2022/08/02 00:58:58;;;;;;;6.30;3.70;;;;;;;22.61;48.25;98532.66;5106076;28;20047;-92
2022/08/02 01:04:27;;;;;;;4.93;3.50;;;;;;;22.58;48.06;98534.75;5133603;27;20404;-90
2022/08/02 01:06:52;;;;;;;4.90;3.60;;;;;;;22.59;48.03;98544.59;5131794;27;20065;-92
2022/08/02 01:09:18;;;;;;;4.30;3.50;;;;;;;22.59;47.90;98542.75;5131928;28;20043;-89
2022/08/02 01:11:44;;;;;;;5.53;3.70;;;;;;;22.71;47.71;98549.03;5132221;27;20128;-91
2022/08/02 01:14:13;;;;;;;4.85;3.83;;;;;;;22.65;47.84;98534.13;5132735;27;20047;-92
2022/08/02 01:16:49;;;;;;;7.47;3.92;;;;;;;22.75;47.50;98542.41;5129962;28;20062;-91
2022/08/02 01:19:31;;;;;;;6.00;3.33;;;;;;;22.84;47.18;98548.91;5129937;28;20058;-90
2022/08/02 01:22:19;;;;;;;5.43;3.45;;;;;;;22.87;46.54;98526.97;5128831;28;20080;-90
2022/08/02 01:25:01;;;;;;;4.25;3.47;;;;;;;23.06;46.15;98540.78;5130081;28;20043;-92
2022/08/02 01:27:39;;;;;;;5.47;3.40;;;;;;;23.11;46.22;98540.41;5131326;28;20077;-94
2022/08/02 01:30:10;;;;;;;4.88;3.33;;;;;;;23.04;46.31;98539.19;5133380;28;20036;-91
2022/08/02 01:32:42;;;;;;;4.43;3.20;;;;;;;22.95;46.81;98546.19;5133964;28;20123;-92
2022/08/02 01:35:12;;;;;;;4.45;3.45;;;;;;;22.85;47.09;98540.63;5120852;28;20093;-91
2022/08/02 01:37:43;;;;;;;7.47;3.53;;;;;;;22.67;47.59;98528.59;5134301;27;20043;-92
2022/08/02 01:40:12;;;;;;;6.03;3.55;;;;;;;22.58;47.86;98527.50;5133825;27;21041;-92
2022/08/02 01:42:39;;;;;;;;;;;;;;;22.59;47.98;98537.31;5134823;27;20047;-92
2022/08/02 01:45:07;;;;;;;4.65;3.50;;;;;;;22.42;48.47;98527.81;5134219;27;19926;-92
2022/08/02 01:47:39;;;;;;;4.05;3.25;;;;;;;22.38;48.85;98539.03;5122157;27;20063;-94
2022/08/02 01:50:07;;;;;;;3.80;3.15;;;;;;;22.34;49.39;98546.56;5133582;27;20055;-92
2022/08/02 01:52:38;;;;;;;5.53;3.40;;;;;;;22.27;49.63;98545.31;5134251;27;20036;-92
2022/08/02 01:55:07;;;;;;;5.28;3.15;;;;;;;22.13;49.75;98544.50;5134069;27;20040;-91
2022/08/02 01:57:38;;;;;;;5.78;3.60;;;;;;;22.01;50.59;98544.59;5133078;27;20766;-92
2022/08/02 02:00:07;;;;;;;6.65;3.80;;;;;;;21.91;50.40;98530.94;5133136;28;20075;-92
2022/08/02 02:02:35;;;;;;;;;;;;;;;21.95;50.61;98545.97;5134581;27;20092;-92
2022/08/02 02:05:04;;;;;;;5.85;3.78;;;;;;;21.93;50.29;98542.50;5133538;27;19923;-92
2022/08/02 02:07:33;;;;;;;6.13;4.03;;;;;;;21.83;51.13;98542.34;5133569;27;20542;-92
2022/08/02 02:09:59;;;;;;;;;;;;;;;21.81;51.41;98552.41;5133755;27;20430;-92
2022/08/02 02:12:27;;;;;;;5.55;3.80;;;;;;;21.77;51.65;98537.38;5131957;27;20364;-92
2022/08/02 02:14:54;;;;;;;5.65;3.80;;;;;;;21.76;51.51;98542.94;5124387;27;20446;-92
2022/08/02 02:17:21;;;;;;;5.25;3.75;;;;;;;21.62;51.33;98527.75;5119040;27;20043;-92
2022/08/02 02:19:50;;;;;;;4.65;3.60;;;;;;;21.65;51.88;98536.50;5118871;28;20139;-92
2022/08/02 02:22:17;;;;;;;6.07;3.75;;;;;;;21.66;52.23;98540.91;5118478;28;20035;-93
2022/08/02 02:24:43;;;;;;;5.85;3.53;;;;;;;21.63;52.75;98545.72;5118542;28;20423;-91
2022/08/02 02:27:13;;;;;;;4.90;3.63;;;;;;;21.43;52.10;98523.75;5118709;28;20054;-94
2022/08/02 02:29:44;;;;;;;6.20;3.60;;;;;;;21.50;52.36;98530.41;5118444;28;20048;-93
2022/08/02 02:32:11;;;;;;;5.68;3.75;;;;;;;21.53;52.12;98535.59;5118572;28;20036;-92
2022/08/02 02:34:40;;;;;;;5.60;4.35;;;;;;;21.54;52.73;98537.31;5117566;28;20042;-92
2022/08/02 02:37:13;;;;;;;7.88;4.05;;;;;;;21.49;52.92;98539.50;5117803;28;20054;-92
2022/08/02 02:39:43;;;;;;;7.32;3.85;;;;;;;21.40;52.94;98531.19;5117118;28;20114;-92
2022/08/02 02:42:13;;;;;;;7.28;4.28;;;;;;;21.24;53.04;98518.81;5115512;28;20044;-92
2022/08/02 02:44:40;;;;;;;4.65;3.60;;;;;;;21.27;53.57;98520.41;5118988;28;20039;-92
2022/08/02 02:47:08;;;;;;;5.30;3.95;;;;;;;21.33;53.67;98545.16;5119106;28;20053;-92
2022/08/02 02:49:36;;;;;;;5.23;3.60;;;;;;;21.29;53.44;98537.41;5118572;28;20039;-93
2022/08/02 02:52:04;;;;;;;4.47;3.53;;;;;;;21.24;53.91;98536.88;5118266;28;20287;-91
2022/08/02 02:54:32;;;;;;;6.80;4.60;;;;;;;21.23;54.10;98541.44;5117829;28;20043;-93
2022/08/02 02:57:00;;;;;;;5.45;3.45;;;;;;;21.03;54.34;98529.38;5118096;28;20043;-93
2022/08/02 02:59:27;;;;;;;6.70;3.78;;;;;;;21.22;54.52;98552.38;5118641;28;20032;-91
2022/08/02 03:01:53;;;;;;;4.80;3.78;;;;;;;21.12;54.64;98542.25;5116960;27;20036;-92
2022/08/02 03:04:20;;;;;;;7.53;3.90;;;;;;;21.05;54.95;98545.50;5138920;27;20047;-91
2022/08/02 03:06:46;;;;;;;6.25;3.95;;;;;;;20.98;55.15;98536.97;5136750;27;20084;-93
2022/08/02 03:09:13;;;;;;;4.53;3.20;;;;;;;20.99;54.93;98541.41;5148377;27;20045;-92
2022/08/02 03:11:40;;;;;;;6.22;3.47;;;;;;;20.91;55.04;98539.25;5149981;27;20038;-93
2022/08/02 03:14:11;;;;;;;4.47;3.45;;;;;;;20.89;55.56;98546.63;5145841;27;20058;-92
2022/08/02 03:16:48;;;;;;;5.88;3.88;;;;;;;20.82;55.75;98548.06;5150195;27;20050;-92
2022/08/02 03:19:14;;;;;;;4.20;3.28;;;;;;;20.81;55.39;98540.03;5149938;27;20039;-92
2022/08/02 03:21:41;;;;;;;4.95;4.03;;;;;;;20.66;55.27;98529.38;5153180;27;20529;-93
2022/08/02 03:24:07;;;;;;;8.35;4.10;;;;;;;20.60;55.97;98529.84;5148324;27;20118;-92
2022/08/02 03:26:34;;;;;;;4.32;3.70;;;;;;;20.65;55.76;98551.13;5146135;27;20035;-93
2022/08/02 03:29:01;;;;;;;7.00;3.78;;;;;;;20.45;56.21;98522.78;5147284;27;20488;-92
2022/08/02 03:31:28;;;;;;;6.05;3.78;;;;;;;20.53;56.18;98540.16;5151040;27;20043;-94
2022/08/02 03:33:55;;;;;;;4.57;3.72;;;;;;;20.47;56.34;98543.31;5140993;27;20034;-91
2022/08/02 03:36:24;;;;;;;5.30;3.88;;;;;;;20.43;55.99;98549.06;5138037;27;20126;-93
2022/08/02 03:38:51;;;;;;;5.70;3.80;;;;;;;20.38;56.16;98557.44;5136948;27;20099;-92
2022/08/02 03:41:19;;;;;;;5.55;3.72;;;;;;;20.23;56.30;98548.63;5138664;27;20031;-91
2022/08/02 03:43:47;;;;;;;4.78;3.53;;;;;;;20.28;56.17;98551.00;5134504;27;20027;-93
2022/08/02 03:46:15;;;;;;;6.03;3.83;;;;;;;20.26;56.32;98551.09;5138861;27;20043;-94
2022/08/02 03:48:44;;;;;;;6.65;3.92;;;;;;;20.20;56.43;98537.16;5137950;27;20039;-91
2022/08/02 03:51:10;;;;;;;5.45;3.60;;;;;;;20.39;55.63;98553.78;5137285;27;20039;-92
2022/08/02 03:53:37;;;;;;;4.95;3.60;;;;;;;20.37;55.63;98544.94;5138524;27;20076;-92
2022/08/02 03:56:05;;;;;;;4.55;3.50;;;;;;;20.44;55.42;98546.22;5137916;27;20035;-94
2022/08/02 03:58:31;;;;;;;4.55;3.53;;;;;;;20.41;55.16;98532.09;5144103;27;20126;-93
2022/08/02 04:00:58;;;;;;;5.88;3.50;;;;;;;20.41;54.99;98535.66;5146450;27;20039;-92
2022/08/02 04:03:24;;;;;;;4.65;3.92;;;;;;;20.40;55.51;98535.75;5142195;27;20130;-92
2022/08/02 04:05:52;;;;;;;5.82;4.15;;;;;;;20.37;55.75;98533.28;5149225;27;20035;-90
2022/08/02 04:08:18;;;;;;;5.03;3.50;;;;;;;20.44;55.82;98543.53;5144875;27;20486;-92
2022/08/02 04:13:44;;;;;;;4.68;3.60;;;;;;;20.51;55.43;98554.75;5092683;27;20390;-94
2022/08/02 04:16:13;;;;;;;5.45;3.70;;;;;;;20.48;55.38;98555.84;5091936;28;20120;-93
2022/08/02 04:18:44;;;;;;;5.05;3.92;;;;;;;20.42;56.09;98558.97;5092221;28;20127;-94
2022/08/02 04:21:13;;;;;;;5.78;4.20;;;;;;;20.35;56.42;98548.72;5086741;28;20040;-93
2022/08/02 04:23:42;;;;;;;5.55;4.22;;;;;;;20.35;55.98;98554.13;5093558;28;20063;-92
2022/08/02 04:26:09;;;;;;;;;;;;;;;20.40;56.50;98566.31;5092960;28;20032;-93
2022/08/02 04:28:35;;;;;;;5.68;3.85;;;;;;;20.26;56.87;98539.44;5092228;28;19920;-94
2022/08/02 04:31:04;;;;;;;6.20;4.50;;;;;;;20.28;57.53;98538.34;5091414;28;20087;-93
2022/08/02 04:33:30;;;;;;;5.65;4.03;;;;;;;20.33;56.95;98543.41;5086554;28;20109;-94
2022/08/02 04:35:57;;;;;;;5.85;3.97;;;;;;;20.48;56.52;98563.09;5094567;28;20070;-93
2022/08/02 04:38:24;;;;;;;5.00;3.80;;;;;;;20.40;56.58;98543.84;5093792;28;20040;-94
2022/08/02 04:40:52;;;;;;;5.20;4.00;;;;;;;20.59;55.95;98568.63;5093183;28;20067;-93
2022/08/02 04:43:18;;;;;;;5.72;4.40;;;;;;;20.61;55.88;98561.25;5094063;28;20036;-92
2022/08/02 04:45:46;;;;;;;6.68;4.30;;;;;;;20.73;56.54;98567.59;5092638;28;20036;-93
2022/08/02 04:48:13;;;;;;;6.45;4.40;;;;;;;20.76;56.72;98566.56;5092710;28;20123;-90
2022/08/02 04:50:39;;;;;;;5.18;4.38;;;;;;;20.76;56.95;98553.91;5092516;28;20132;-92
2022/08/02 04:53:05;;;;;;;5.90;4.05;;;;;;;20.95;56.91;98566.94;5091308;28;20081;-93
2022/08/02 04:55:31;;;;;;;6.80;3.78;;;;;;;20.90;57.23;98548.34;5093347;28;20475;-93
2022/08/02 04:57:58;;;;;;;7.70;4.20;;;;;;;21.06;56.48;98563.47;5092659;28;20074;-94
2022/08/02 05:00:26;;;;;;;6.80;4.13;;;;;;;21.05;55.99;98545.50;5092717;28;20044;-94
2022/08/02 05:02:52;;;;;;;5.00;3.85;;;;;;;21.28;57.34;98555.47;5093107;28;20098;-94
2022/08/02 05:05:20;;;;;;;5.38;3.90;;;;;;;21.39;57.49;98567.34;5092450;28;20048;-94
2022/08/02 05:07:46;;;;;;;5.65;4.13;;;;;;;21.28;56.82;98551.91;5093474;28;20036;-94
2022/08/02 05:10:12;;;;;;;4.93;3.78;;;;;;;21.39;55.91;98568.19;5092629;28;20043;-93
2022/08/02 05:12:38;;;;;;;4.38;3.90;;;;;;;21.31;56.10;98549.81;5092746;28;20049;-93
2022/08/02 05:15:05;;;;;;;5.38;4.13;;;;;;;21.47;57.16;98571.22;5092479;28;20090;-93
2022/08/02 05:17:31;;;;;;;6.78;3.90;;;;;;;21.46;56.88;98572.19;5093399;28;20047;-94
2022/08/02 05:19:57;;;;;;;7.45;3.80;;;;;;;21.54;56.60;98571.63;5093017;28;20036;-93
2022/08/02 05:22:25;;;;;;;7.15;4.05;;;;;;;21.53;56.02;98562.66;5093702;28;20455;-93
2022/08/02 05:24:51;;;;;;;7.20;3.70;;;;;;;21.69;56.28;98577.72;5081290;28;20032;-92
2022/08/02 05:27:17;;;;;;;7.97;4.00;;;;;;;21.69;57.77;98578.59;5079878;28;20048;-93
2022/08/02 05:29:42;;;;;;;5.93;3.90;;;;;;;21.71;55.84;98571.22;5080600;28;20064;-93
2022/08/02 05:32:08;;;;;;;9.10;4.38;;;;;;;21.81;54.67;98571.38;5079355;28;20485;-92
2022/08/02 05:34:34;;;;;;;9.13;4.22;;;;;;;22.10;54.11;98581.81;5079552;28;20033;-94
2022/08/02 05:37:00;;;;;;;6.32;4.47;;;;;;;22.34;53.24;98570.94;5078608;28;20045;-92
2022/08/02 05:39:28;;;;;;;9.15;4.10;;;;;;;22.70;53.75;98586.09;5077026;28;20072;-93
2022/08/02 05:41:54;;;;;;;5.45;4.10;;;;;;;23.02;52.07;98581.84;5076963;28;20051;-93
2022/08/02 05:44:20;;;;;;;6.95;4.10;;;;;;;23.32;50.57;98583.88;5079865;28;20123;-94
2022/08/02 05:46:46;;;;;;;7.07;4.47;;;;;;;23.47;49.47;98560.06;5080733;28;20418;-93
2022/08/02 05:49:12;;;;;;;5.65;3.97;;;;;;;23.75;48.77;98564.91;5080166;28;20047;-92
2022/08/02 05:51:41;;;;;;;6.50;4.22;;;;;;;23.97;48.50;98572.09;5080719;28;20066;-93
2022/08/02 05:54:15;;;;;;;8.38;4.18;;;;;;;24.13;48.05;98568.03;5079321;28;20056;-94
2022/08/02 05:56:47;;;;;;;9.15;3.85;;;;;;;24.29;47.22;98564.84;5079457;28;20048;-93
2022/08/02 05:59:22;;;;;;;9.30;4.63;;;;;;;24.40;47.48;98572.97;5078159;28;20045;-93
2022/08/02 06:01:54;;;;;;;7.22;4.15;;;;;;;24.45;47.31;98572.56;5074719;28;20104;-92
2022/08/02 06:04:36;;;;;;;8.27;4.18;;;;;;;24.55;46.44;98559.91;5079600;28;20471;-94
2022/08/02 06:07:05;;;;;;;6.80;4.18;;;;;;;24.74;45.60;98572.72;5078959;28;20037;-92
2022/08/02 06:09:32;;;;;;;4.50;3.92;;;;;;;24.79;45.14;98574.06;5078557;28;20040;-94
2022/08/02 06:12:02;;;;;;;5.95;4.00;;;;;;;24.94;44.08;98571.81;5076902;28;20044;-93
2022/08/02 06:14:30;;;;;;;5.50;3.97;;;;;;;24.86;44.40;98574.38;5069690;28;20043;-93
2022/08/02 06:16:57;;;;;;;6.25;3.90;;;;;;;24.97;44.34;98581.56;5078901;28;20086;-94
2022/08/02 06:19:24;;;;;;;5.78;3.75;;;;;;;25.02;44.42;98576.56;5077906;28;20063;-93
2022/08/02 06:21:51;;;;;;;6.50;3.60;;;;;;;25.05;43.50;98579.03;5078311;28;20040;-94
2022/08/02 06:24:21;;;;;;;4.70;3.58;;;;;;;24.97;42.76;98595.16;5075051;28;20054;-91
2022/08/02 06:26:51;;;;;;;5.65;3.60;;;;;;;24.82;43.07;98604.69;5074753;28;20041;-92
2022/08/02 06:29:19;;;;;;;7.25;3.78;;;;;;;24.60;42.88;98598.44;5073761;28;20086;-92
2022/08/02 06:31:46;;;;;;;4.75;3.70;;;;;;;24.49;44.23;98593.06;5073165;28;20040;-94
2022/08/02 06:34:12;;;;;;;4.63;3.60;;;;;;;24.28;44.55;98602.03;5073732;28;20498;-90
2022/08/02 06:36:45;;;;;;;4.90;3.30;;;;;;;24.43;44.70;98589.00;5073947;28;20054;-94
2022/08/02 06:39:18;;;;;;;5.18;3.70;;;;;;;24.92;44.25;98608.31;5074872;28;20501;-93
2022/08/02 06:41:48;;;;;;;5.82;4.00;;;;;;;24.74;43.65;98587.19;5074192;28;20064;-95
2022/08/02 06:44:15;;;;;;;5.35;4.00;;;;;;;25.09;43.42;98591.34;5076706;28;20041;-94
2022/08/02 06:46:42;;;;;;;5.93;4.13;;;;;;;25.18;42.98;98603.28;5074668;28;20039;-93
2022/08/02 06:49:08;;;;;;;8.65;3.90;;;;;;;25.48;42.12;98601.50;5075540;28;20048;-92
2022/08/02 06:51:34;;;;;;;6.40;3.78;;;;;;;25.54;42.49;98592.78;5068296;28;20060;-94
2022/08/02 06:54:00;;;;;;;9.73;4.00;;;;;;;25.64;41.69;98590.09;5075417;28;20071;-92
2022/08/02 06:56:26;;;;;;;6.22;4.13;;;;;;;25.83;41.14;98595.53;5076765;28;20048;-92
2022/08/02 06:58:52;;;;;;;6.50;3.75;;;;;;;26.22;41.26;98590.97;5077233;28;20549;-93
2022/08/02 07:01:18;;;;;;;4.70;3.60;;;;;;;26.55;40.29;98599.66;5077271;28;20062;-91
2022/08/02 07:03:45;;;;;;;7.32;3.92;;;;;;;26.63;39.72;98583.47;5076220;28;20040;-92
2022/08/02 07:06:11;;;;;;;9.85;4.68;;;;;;;26.79;40.12;98599.19;5075703;28;20036;-93
2022/08/02 07:08:38;;;;;;;32.33;8.23;;;;;;;26.99;40.05;98582.75;5075193;28;20066;-92
2022/08/02 07:11:04;;;;;;;5.53;3.78;;;;;;;27.34;38.11;98586.63;5076008;28;20071;-92
2022/08/02 07:13:30;;;;;;;6.65;4.00;;;;;;;27.39;38.49;98573.34;5069081;28;20442;-93
2022/08/02 07:15:56;;;;;;;6.90;3.95;;;;;;;27.54;38.64;98590.97;5075902;28;20378;-94
2022/08/02 07:18:22;;;;;;;5.03;4.00;;;;;;;27.23;38.23;98569.44;5075527;28;20062;-94
2022/08/02 07:20:55;;;;;;;5.38;4.07;;;;;;;27.51;38.91;98577.59;5076492;28;20054;-91
2022/08/02 07:23:21;;;;;;;7.57;3.97;;;;;;;27.87;37.38;98572.22;5075481;28;20041;-92
2022/08/02 07:25:47;;;;;;;10.65;4.05;;;;;;;28.05;37.41;98566.72;5077325;28;20040;-94
2022/08/02 07:28:14;;;;;;;5.45;4.00;;;;;;;28.21;37.39;98566.00;5072849;28;20101;-91
2022/08/02 07:30:40;;;;;;;6.20;3.90;;;;;;;28.45;36.69;98571.66;5074205;28;20049;-93
2022/08/02 07:33:07;;;;;;;5.15;3.80;;;;;;;28.56;36.40;98583.38;5075618;28;20510;-94
2022/08/02 07:35:33;;;;;;;5.72;3.80;;;;;;;28.57;36.70;98564.06;5074676;28;20117;-94
2022/08/02 07:38:00;;;;;;;5.43;3.95;;;;;;;28.63;36.16;98579.84;5074173;28;20477;-92
2022/08/02 07:40:26;;;;;;;6.38;3.97;;;;;;;28.53;36.11;98581.81;5074397;28;20056;-93
2022/08/02 07:42:55;;;;;;;6.28;3.60;;;;;;;28.11;36.35;98565.25;5075463;28;20028;-92
2022/08/02 07:45:22;;;;;;;4.72;3.38;;;;;;;27.94;37.29;98567.81;5074318;28;20051;-91
2022/08/02 07:47:49;;;;;;;6.95;4.20;;;;;;;28.09;37.54;98562.66;5073866;28;20535;-92
2022/08/02 07:50:16;;;;;;;6.70;4.20;;;;;;;28.08;36.53;98554.59;5074874;28;20110;-94
2022/08/02 07:52:44;;;;;;;5.57;4.10;;;;;;;28.32;36.42;98565.72;5074441;28;20063;-92
2022/08/02 07:55:13;;;;;;;4.50;3.92;;;;;;;28.24;36.18;98562.97;5074228;28;20056;-92
2022/08/02 07:57:40;;;;;;;5.20;4.28;;;;;;;28.21;36.36;98541.38;5073077;28;20045;-92
2022/08/02 08:00:08;;;;;;;6.78;4.03;;;;;;;28.38;36.16;98581.50;5072931;28;20444;-92
2022/08/02 08:02:34;;;;;;;7.57;4.03;;;;;;;28.29;36.17;98566.06;5072466;28;20437;-92
2022/08/02 08:05:01;;;;;;;7.20;4.45;;;;;;;28.27;36.72;98560.75;5073185;28;20043;-89
2022/08/02 08:07:26;;;;;;;6.28;4.30;;;;;;;28.18;37.09;98563.59;5073668;28;20048;-90
2022/08/02 08:09:52;;;;;;;7.25;4.15;;;;;;;28.44;36.66;98569.94;5073496;28;20514;-90
2022/08/02 08:12:20;;;;;;;6.18;4.00;;;;;;;28.53;37.19;98579.06;5073034;28;20044;-92
2022/08/02 08:14:46;;;;;;;6.85;4.05;;;;;;;28.56;36.59;98576.03;5073196;28;20054;-92
2022/08/02 08:17:11;;;;;;;6.35;4.03;;;;;;;28.79;35.87;98579.06;5073413;28;20048;-91
2022/08/02 08:19:37;;;;;;;5.65;4.05;;;;;;;28.96;35.04;98570.97;5073497;28;20043;-92
2022/08/02 08:22:04;;;;;;;5.40;4.00;;;;;;;29.29;34.43;98563.75;5073379;28;20047;-90
2022/08/02 08:24:30;;;;;;;5.78;3.88;;;;;;;29.43;34.42;98563.13;5072562;28;20044;-90
2022/08/02 08:26:56;;;;;;;5.60;3.92;;;;;;;29.38;34.13;98568.22;5072731;28;20474;-90
2022/08/02 08:29:25;;;;;;;5.28;3.95;;;;;;;29.52;35.02;98569.50;5071168;28;20375;-89
2022/08/02 08:31:51;;;;;;;4.93;4.00;;;;;;;29.73;33.78;98549.00;5070591;28;20036;-88
2022/08/02 08:34:17;;;;;;;4.97;4.13;;;;;;;29.35;34.03;98560.38;5072965;28;20086;-93
2022/08/02 08:36:43;;;;;;;8.55;4.43;;;;;;;29.46;34.44;98562.78;5073239;28;20037;-92
2022/08/02 08:39:09;;;;;;;5.18;4.18;;;;;;;29.89;33.81;98558.09;5072463;28;20036;-91
2022/08/02 08:41:35;;;;;;;5.78;4.07;;;;;;;30.08;33.71;98559.66;5072805;28;20048;-90
2022/08/02 08:44:01;;;;;;;6.05;4.10;;;;;;;30.35;33.74;98560.34;5073864;28;20491;-90
2022/08/02 08:46:30;;;;;;;5.93;4.15;;;;;;;30.60;32.87;98561.19;5072709;28;20055;-91
2022/08/02 08:48:59;;;;;;;5.03;3.80;;;;;;;30.84;32.25;98557.53;5071087;28;20590;-90
2022/08/02 08:51:29;;;;;;;5.97;4.10;;;;;;;30.91;31.96;98572.28;5072108;28;20094;-89
2022/08/02 08:53:58;;;;;;;5.40;3.90;;;;;;;30.99;31.96;98567.78;5070852;28;20037;-90
2022/08/02 08:56:28;;;;;;;;;;;;;;;31.16;32.61;98574.94;5071625;28;20579;-90
2022/08/02 08:58:54;;;;;;;6.55;3.70;;;;;;;31.23;32.26;98558.59;5072414;28;19924;-90
2022/08/02 09:01:20;;;;;;;6.72;4.00;;;;;;;31.44;31.61;98555.25;5076203;28;20540;-91
2022/08/02 09:03:47;;;;;;;7.72;4.00;;;;;;;31.40;31.38;98565.72;5076202;28;20058;-92
2022/08/02 09:06:13;;;;;;;4.55;3.97;;;;;;;31.11;31.19;98564.47;5076543;28;20151;-90
2022/08/02 09:08:39;;;;;;;5.68;4.30;;;;;;;31.20;31.70;98553.47;5075333;28;20064;-91
2022/08/02 09:11:13;;;;;;;7.65;3.85;;;;;;;31.50;31.51;98576.53;5075630;28;20033;-90
2022/08/02 09:13:48;;;;;;;5.40;3.97;;;;;;;31.40;31.22;98557.47;5074416;28;20498;-91
2022/08/02 09:16:14;;;;;;;6.60;3.85;;;;;;;31.69;31.66;98562.31;5075283;28;20037;-91
2022/08/02 09:18:43;;;;;;;12.77;4.88;;;;;;;31.95;31.19;98555.63;5069149;28;20040;-91
2022/08/02 09:21:11;;;;;;;6.68;4.00;;;;;;;32.28;30.55;98555.38;5074224;28;20498;-90
2022/08/02 09:23:38;;;;;;;7.57;4.13;;;;;;;32.47;29.82;98552.09;5074677;28;20064;-90
2022/08/02 09:26:06;;;;;;;6.47;3.67;;;;;;;32.71;29.82;98550.16;5075052;28;20051;-92
2022/08/02 09:28:33;;;;;;;;;;;;;;;32.97;29.16;98559.88;5076771;28;20136;-90
2022/08/02 09:31:04;;;;;;;6.43;4.03;;;;;;;33.16;28.62;98551.06;5075547;28;19967;-91
2022/08/02 09:33:31;;;;;;;6.68;3.90;;;;;;;33.30;28.87;98541.88;5074767;28;20040;-90
2022/08/02 09:36:01;;;;;;;4.97;4.03;;;;;;;33.45;28.40;98550.13;5075351;28;20044;-91
2022/08/02 09:38:29;;;;;;;6.15;3.50;;;;;;;33.58;28.64;98538.41;5074432;28;20098;-92
2022/08/02 09:40:55;;;;;;;6.75;3.50;;;;;;;33.75;28.10;98545.41;5076204;28;20094;-89
2022/08/02 09:43:33;;;;;;;6.85;4.10;;;;;;;33.80;28.01;98531.03;5076369;28;20028;-92
2022/08/02 09:45:58;;;;;;;6.82;3.80;;;;;;;33.74;27.86;98518.03;5074298;28;20028;-92
2022/08/02 09:48:24;;;;;;;7.80;4.20;;;;;;;33.72;28.02;98521.00;5075634;28;20032;-92
2022/08/02 09:50:55;;;;;;;6.05;4.05;;;;;;;33.68;28.03;98533.47;5075084;28;20036;-90
2022/08/02 09:53:22;;;;;;;6.75;4.22;;;;;;;33.10;28.59;98524.25;5075434;28;20044;-90
2022/08/02 09:55:55;;;;;;;4.80;3.80;;;;;;;33.42;28.24;98519.34;5074281;28;20482;-92
2022/08/02 09:58:21;;;;;;;5.57;4.18;;;;;;;33.07;28.32;98521.88;5075474;28;20389;-92
2022/08/02 10:00:54;;;;;;;8.05;4.10;;;;;;;33.18;28.41;98512.25;5075023;28;20528;-92
2022/08/02 10:03:19;;;;;;;12.98;4.43;;;;;;;33.04;28.89;98513.97;5074826;28;20041;-91
2022/08/02 10:05:50;;;;;;;4.22;3.55;;;;;;;33.28;28.03;98508.16;5075007;28;20043;-91
2022/08/02 10:08:16;;;;;;;4.82;3.75;;;;;;;33.57;27.82;98514.63;5073517;28;20486;-90
2022/08/02 10:10:43;;;;;;;6.63;4.50;;;;;;;33.76;27.39;98521.44;5075456;28;20068;-90
2022/08/02 10:13:11;;;;;;;8.05;4.13;;;;;;;33.91;27.39;98513.94;5075760;28;20379;-92
2022/08/02 10:15:37;;;;;;;8.05;3.90;;;;;;;34.09;26.95;98513.50;5075766;28;20036;-90
2022/08/02 10:18:03;;;;;;;6.15;4.38;;;;;;;34.23;26.50;98511.72;5072645;28;20064;-91
2022/08/02 10:20:35;;;;;;;4.32;3.50;;;;;;;34.31;26.37;98499.66;5074189;28;20047;-90
2022/08/02 10:23:02;;;;;;;5.30;3.78;;;;;;;34.38;26.03;98530.97;5073425;28;20292;-90
2022/08/02 10:25:30;;;;;;;4.95;4.10;;;;;;;34.35;26.31;98525.81;5074226;28;20046;-91
2022/08/02 10:27:56;;;;;;;4.45;3.70;;;;;;;34.44;25.33;98501.69;5070315;28;20809;-91
2022/08/02 10:30:27;;;;;;;6.35;3.58;;;;;;;34.44;25.52;98515.47;5074498;28;20119;-91
2022/08/02 10:32:56;;;;;;;6.30;3.65;;;;;;;34.61;25.59;98502.22;5073946;28;20040;-90
2022/08/02 10:35:24;;;;;;;7.30;3.58;;;;;;;34.80;24.95;98507.06;5075335;28;20398;-91
2022/08/02 10:37:53;;;;;;;6.05;3.58;;;;;;;34.64;24.69;98508.25;5075696;28;20044;-90
2022/08/02 10:40:22;;;;;;;6.95;3.80;;;;;;;34.42;25.12;98504.66;5073381;28;20090;-91
2022/08/02 10:42:49;;;;;;;5.88;3.50;;;;;;;34.72;24.89;98483.22;5075115;28;20032;-88
2022/08/02 10:45:16;;;;;;;4.50;3.70;;;;;;;34.43;25.33;98476.00;5074574;28;20220;-90
2022/08/02 10:48:02;;;;;;;5.93;3.90;;;;;;;34.40;25.09;98487.44;5074429;28;20036;-90
2022/08/02 10:50:53;;;;;;;5.00;3.80;;;;;;;34.54;24.78;98488.38;5074434;28;20118;-93
2022/08/02 10:53:29;;;;;;;5.60;3.83;;;;;;;34.95;24.88;98484.81;5074574;28;20036;-92
2022/08/02 10:55:57;;;;;;;6.22;3.80;;;;;;;35.22;23.52;98485.81;5074312;28;20032;-91
2022/08/02 10:58:23;;;;;;;;;;;;;;;35.65;23.68;98484.69;5074844;28;20037;-95
2022/08/02 11:00:49;;;;;;;5.22;3.85;;;;;;;35.78;23.24;98485.56;5074304;28;19924;-91
2022/08/02 11:03:39;;;;;;;4.60;3.60;;;;;;;36.01;23.02;98473.22;5073949;28;20040;-91
2022/08/02 11:06:06;;;;;;;4.28;3.67;;;;;;;36.23;22.46;98471.13;5075133;28;20036;-94
2022/08/02 11:08:32;;;;;;;5.15;3.63;;;;;;;36.21;22.65;98478.78;5076056;28;20163;-94
2022/08/02 11:11:00;;;;;;;5.43;3.70;;;;;;;36.49;22.76;98469.41;5074672;28;20048;-93
2022/08/02 11:13:28;;;;;;;4.28;3.60;;;;;;;36.64;21.86;98455.34;5073547;28;20044;-90
2022/08/02 11:16:00;;;;;;;4.68;3.30;;;;;;;36.91;22.05;98451.41;5075082;28;20044;-94
2022/08/02 11:19:03;;;;;;;5.53;3.50;;;;;;;37.13;20.92;98464.97;5074043;28;20094;-90
2022/08/02 11:21:31;;;;;;;5.95;3.20;;;;;;;36.14;20.74;98459.41;5050566;28;20524;-93
2022/08/02 11:24:24;;;;;;;5.57;3.25;;;;;;;35.74;21.11;98467.69;5070405;28;20039;-92
2022/08/02 11:26:50;;;;;;;5.90;3.53;;;;;;;34.88;20.93;98454.41;5074079;28;20051;-91
2022/08/02 11:29:17;;;;;;;3.78;3.30;;;;;;;34.70;21.36;98459.59;5074474;28;20037;-91
2022/08/02 11:31:44;;;;;;;5.60;3.20;;;;;;;34.63;21.82;98464.25;5074576;28;20079;-92
2022/08/02 11:34:12;;;;;;;4.93;3.15;;;;;;;34.35;21.90;98456.81;5073292;28;20387;-92
2022/08/02 11:36:44;;;;;;;;;;;;;;;34.35;21.69;98463.22;5074512;28;20040;-93
2022/08/02 11:39:11;;;;;;;6.38;3.40;;;;;;;34.27;22.16;98460.59;5073588;28;19966;-90
2022/08/02 11:41:37;;;;;;;3.83;3.17;;;;;;;34.13;22.04;98440.31;5074086;28;20489;-92
2022/08/02 11:44:03;;;;;;;3.90;3.10;;;;;;;34.28;21.64;98437.44;5073888;28;20066;-92